createdAt,value
2019-05-26T00:01:26.830Z,7.63
2019-05-26T00:03:55.630Z,7.60
2019-05-26T00:06:25.737Z,8.20
2019-05-26T00:08:54.663Z,8.00
2019-05-26T00:11:23.546Z,7.83
2019-05-26T00:13:52.378Z,8.83
2019-05-26T00:16:21.309Z,9.53
2019-05-26T00:18:50.230Z,8.67
2019-05-26T00:21:19.107Z,9.50
2019-05-26T00:23:47.960Z,9.03
2019-05-26T00:26:16.976Z,7.40
2019-05-26T00:28:48.269Z,9.43
2019-05-26T00:31:17.734Z,9.37
2019-05-26T00:33:46.612Z,9.27
2019-05-26T00:36:16.231Z,9.70
2019-05-26T00:38:45.753Z,9.20
2019-05-26T00:41:15.334Z,10.47
2019-05-26T00:43:44.162Z,9.00
2019-05-26T00:46:13.093Z,11.70
2019-05-26T00:48:41.930Z,12.53
2019-05-26T00:51:11.710Z,10.20
2019-05-26T00:53:40.596Z,9.03
2019-05-26T00:56:09.486Z,11.50
2019-05-26T00:58:38.299Z,9.00
2019-05-26T01:01:07.186Z,9.57
2019-05-26T01:03:36.020Z,9.87
2019-05-26T01:06:04.894Z,10.07
2019-05-26T01:08:33.707Z,10.57
2019-05-26T01:11:02.611Z,12.13
2019-05-26T01:13:31.632Z,9.73
2019-05-26T01:16:01.751Z,12.10
2019-05-26T01:18:30.678Z,12.23
2019-05-26T01:21:00.779Z,13.73
2019-05-26T01:23:29.600Z,12.87
2019-05-26T01:25:58.451Z,11.33
2019-05-26T01:28:30.514Z,12.63
2019-05-26T01:30:59.325Z,13.07
2019-05-26T01:33:28.122Z,14.73
2019-05-26T01:35:58.277Z,13.63
2019-05-26T01:38:27.033Z,14.03
2019-05-26T01:40:55.840Z,12.43
2019-05-26T01:43:24.712Z,15.47
2019-05-26T01:45:53.509Z,12.43
2019-05-26T01:48:22.366Z,11.47
2019-05-26T01:50:51.185Z,14.97
2019-05-26T01:53:19.999Z,12.10
2019-05-26T01:55:48.840Z,13.83
2019-05-26T01:58:17.697Z,13.37
2019-05-26T02:00:46.496Z,12.67
2019-05-26T02:03:15.592Z,14.20
2019-05-26T02:05:44.508Z,15.53
2019-05-26T02:08:15.091Z,16.93
2019-05-26T02:10:43.913Z,16.20
2019-05-26T02:13:14.024Z,17.30
2019-05-26T02:15:42.812Z,17.93
2019-05-26T02:18:11.821Z,19.87
2019-05-26T02:20:40.679Z,17.07
2019-05-26T02:23:09.480Z,12.40
2019-05-26T02:25:38.363Z,15.77
2019-05-26T02:28:07.819Z,16.67
2019-05-26T02:30:36.674Z,18.07
2019-05-26T02:33:05.589Z,15.90
2019-05-26T02:35:34.400Z,14.67
2019-05-26T02:38:03.260Z,16.47
2019-05-26T02:40:32.872Z,16.67
2019-05-26T02:43:01.672Z,18.97
2019-05-26T02:45:31.224Z,17.57
2019-05-26T02:48:00.115Z,15.23
2019-05-26T02:50:28.943Z,16.83
2019-05-26T02:52:58.290Z,16.53
2019-05-26T02:55:27.133Z,17.63
2019-05-26T02:57:56.313Z,21.17
2019-05-26T03:00:34.579Z,17.00
2019-05-26T03:03:03.519Z,17.13
2019-05-26T03:05:32.378Z,19.40
2019-05-26T03:08:01.280Z,22.27
2019-05-26T03:10:30.118Z,21.17
2019-05-26T03:12:58.961Z,19.50
2019-05-26T03:15:28.349Z,26.30
2019-05-26T03:17:57.045Z,23.60
2019-05-26T03:20:25.860Z,24.73
2019-05-26T03:22:54.749Z,26.00
2019-05-26T03:25:23.555Z,24.10
2019-05-26T03:27:52.364Z,25.63
2019-05-26T03:30:21.200Z,25.63
2019-05-26T03:32:50.051Z,26.37
2019-05-26T03:35:19.432Z,29.07
2019-05-26T03:37:49.263Z,29.43
2019-05-26T03:40:18.087Z,30.87
2019-05-26T03:42:46.942Z,30.57
2019-05-26T03:45:22.915Z,29.33
2019-05-26T03:47:51.938Z,29.73
2019-05-26T03:50:20.812Z,32.70
2019-05-26T03:52:49.638Z,30.57
2019-05-26T03:55:18.478Z,31.40
2019-05-26T03:57:47.293Z,29.43
2019-05-26T04:00:16.168Z,34.60
2019-05-26T04:02:45.016Z,30.30
2019-05-26T04:05:13.872Z,31.13
2019-05-26T04:07:42.801Z,29.43
2019-05-26T04:10:11.838Z,34.27
2019-05-26T04:12:40.705Z,31.47
2019-05-26T04:15:10.579Z,28.47
2019-05-26T04:17:40.088Z,33.87
2019-05-26T04:20:10.250Z,31.57
2019-05-26T04:22:39.300Z,30.67
2019-05-26T04:25:08.444Z,30.63
2019-05-26T04:27:38.393Z,33.70
2019-05-26T04:30:08.041Z,36.63
2019-05-26T04:32:38.919Z,33.47
2019-05-26T04:35:08.386Z,36.30
2019-05-26T04:37:37.220Z,37.97
2019-05-26T04:40:24.991Z,37.07
2019-05-26T04:42:34.981Z,37.57
2019-05-26T04:45:03.813Z,39.90
2019-05-26T04:47:33.923Z,39.47
2019-05-26T04:50:02.753Z,39.90
2019-05-26T04:52:31.578Z,38.43
2019-05-26T04:55:08.122Z,41.37
2019-05-26T04:57:37.063Z,40.93
2019-05-26T05:00:06.231Z,40.87
2019-05-26T05:02:35.996Z,40.43
2019-05-26T05:05:05.520Z,41.63
2019-05-26T05:07:34.451Z,38.73
2019-05-26T05:10:03.284Z,38.40
2019-05-26T05:12:32.099Z,38.83
2019-05-26T05:15:00.985Z,37.87
2019-05-26T05:17:30.637Z,37.57
2019-05-26T05:19:59.486Z,35.27
2019-05-26T05:22:28.297Z,38.20
2019-05-26T05:24:58.765Z,39.50
2019-05-26T05:27:27.911Z,36.17
2019-05-26T05:29:57.160Z,36.73
2019-05-26T05:32:25.983Z,38.77
2019-05-26T05:34:55.543Z,35.47
2019-05-26T05:37:25.410Z,36.23
2019-05-26T05:39:54.714Z,34.07
2019-05-26T05:42:23.484Z,32.53
2019-05-26T05:44:53.240Z,34.20
2019-05-26T05:47:22.140Z,35.33
2019-05-26T05:49:50.982Z,35.00
2019-05-26T05:52:19.842Z,33.40
2019-05-26T05:54:48.678Z,33.20
2019-05-26T05:57:18.430Z,31.33
2019-05-26T05:59:48.259Z,32.30
2019-05-26T06:02:17.088Z,31.50
2019-05-26T06:04:45.964Z,30.10
2019-05-26T06:07:15.521Z,30.87
2019-05-26T06:09:44.399Z,29.97
2019-05-26T06:12:13.739Z,31.00
2019-05-26T06:14:42.663Z,29.97
2019-05-26T06:17:14.462Z,31.63
2019-05-26T06:19:43.839Z,30.10
2019-05-26T06:22:14.088Z,30.00
2019-05-26T06:24:43.498Z,29.53
2019-05-26T06:27:12.404Z,28.77
2019-05-26T06:29:55.974Z,27.63
2019-05-26T06:32:13.203Z,28.83
2019-05-26T06:34:42.552Z,26.10
2019-05-26T06:37:12.619Z,28.40
2019-05-26T06:39:41.539Z,26.30
2019-05-26T06:42:12.894Z,25.10
2019-05-26T06:44:52.602Z,26.40
2019-05-26T06:47:09.576Z,25.63
2019-05-26T06:49:38.459Z,23.13
2019-05-26T06:52:07.436Z,24.90
2019-05-26T06:54:36.315Z,24.47
2019-05-26T06:57:05.161Z,25.07
2019-05-26T06:59:34.198Z,22.83
2019-05-26T07:02:03.082Z,23.23
2019-05-26T07:04:32.044Z,25.37
2019-05-26T07:07:00.860Z,24.77
2019-05-26T07:09:29.741Z,24.43
2019-05-26T07:12:00.464Z,24.60
2019-05-26T07:14:28.288Z,24.13
2019-05-26T07:16:57.154Z,25.83
2019-05-26T07:19:25.986Z,25.50
2019-05-26T07:21:55.296Z,23.83
2019-05-26T07:24:24.136Z,24.73
2019-05-26T07:26:52.966Z,24.87
2019-05-26T07:29:21.804Z,23.60
2019-05-26T07:31:50.642Z,22.13
2019-05-26T07:34:20.469Z,23.93
2019-05-26T07:36:49.742Z,22.33
2019-05-26T07:39:18.613Z,25.10
2019-05-26T07:41:48.464Z,22.90
2019-05-26T07:44:17.901Z,25.57
2019-05-26T07:46:46.719Z,21.87
2019-05-26T07:49:15.603Z,20.80
2019-05-26T07:51:44.415Z,21.20
2019-05-26T07:54:24.959Z,20.47
2019-05-26T07:56:43.902Z,21.70
2019-05-26T07:59:12.782Z,20.17
2019-05-26T08:01:41.743Z,19.17
2019-05-26T08:04:11.290Z,19.77
2019-05-26T08:06:40.190Z,18.47
2019-05-26T08:09:09.591Z,19.00
2019-05-26T08:11:38.490Z,18.73
2019-05-26T08:14:08.278Z,17.53
2019-05-26T08:16:37.855Z,17.73
2019-05-26T08:19:06.820Z,18.37
2019-05-26T08:21:35.708Z,17.00
2019-05-26T08:24:05.256Z,15.73
2019-05-26T08:26:34.078Z,16.20
2019-05-26T08:29:02.991Z,16.10
2019-05-26T08:31:31.875Z,16.53
2019-05-26T08:34:00.708Z,16.13
2019-05-26T08:36:31.496Z,16.13
2019-05-26T08:39:00.712Z,17.17
2019-05-26T08:41:29.608Z,16.73
2019-05-26T08:44:00.131Z,15.10
2019-05-26T08:46:29.401Z,13.83
2019-05-26T08:48:58.229Z,14.27
2019-05-26T08:51:27.113Z,14.47
2019-05-26T08:53:56.016Z,14.07
2019-05-26T08:56:24.876Z,14.50
2019-05-26T08:58:53.915Z,14.27
2019-05-26T09:01:22.801Z,16.03
2019-05-26T09:03:52.298Z,14.23
2019-05-26T09:06:22.499Z,13.40
2019-05-26T09:08:52.454Z,13.63
2019-05-26T09:11:21.295Z,15.87
2019-05-26T09:13:50.592Z,14.00
2019-05-26T09:16:20.455Z,13.47
2019-05-26T09:18:49.302Z,13.80
2019-05-26T09:21:18.292Z,14.60
2019-05-26T09:23:47.238Z,12.37
2019-05-26T09:26:16.072Z,13.10
2019-05-26T09:28:45.881Z,12.83
2019-05-26T09:31:15.239Z,13.37
2019-05-26T09:33:45.190Z,12.80
2019-05-26T09:36:14.414Z,12.83
2019-05-26T09:38:43.306Z,13.80
2019-05-26T09:41:12.786Z,13.07
2019-05-26T09:43:41.669Z,13.50
2019-05-26T09:46:11.430Z,13.17
2019-05-26T09:48:41.520Z,11.17
2019-05-26T09:51:10.615Z,13.33
2019-05-26T09:53:39.442Z,13.20
2019-05-26T09:56:08.409Z,11.73
2019-05-26T09:58:37.693Z,12.40
2019-05-26T10:01:06.815Z,12.07
2019-05-26T10:03:35.783Z,12.80
2019-05-26T10:06:04.618Z,11.93
2019-05-26T10:08:33.834Z,12.23
2019-05-26T10:11:02.696Z,10.53
2019-05-26T10:13:32.256Z,12.43
2019-05-26T10:16:01.051Z,11.30
2019-05-26T10:18:29.931Z,11.87
2019-05-26T10:20:58.891Z,11.23
2019-05-26T10:23:28.181Z,10.53
2019-05-26T10:25:58.005Z,9.93
2019-05-26T10:28:26.910Z,11.27
2019-05-26T10:30:59.009Z,11.10
2019-05-26T10:33:28.199Z,10.97
2019-05-26T10:35:57.851Z,10.43
2019-05-26T10:38:26.759Z,10.03
2019-05-26T10:40:55.712Z,10.60
2019-05-26T10:43:24.624Z,10.00
2019-05-26T10:45:53.444Z,11.37
2019-05-26T10:48:22.374Z,12.43
2019-05-26T10:50:51.298Z,10.90
2019-05-26T10:53:21.920Z,11.43
2019-05-26T10:55:52.489Z,11.50
2019-05-26T10:58:21.357Z,12.23
2019-05-26T11:00:50.243Z,11.97
2019-05-26T11:03:19.097Z,11.03
2019-05-26T11:05:47.911Z,12.10
2019-05-26T11:08:19.818Z,11.80
2019-05-26T11:10:48.643Z,11.23
2019-05-26T11:13:17.552Z,10.43
2019-05-26T11:15:46.525Z,11.73
2019-05-26T11:18:15.339Z,11.43
2019-05-26T11:20:44.682Z,11.17
2019-05-26T11:23:14.924Z,11.53
2019-05-26T11:25:43.890Z,11.00
2019-05-26T11:28:12.703Z,11.60
2019-05-26T11:30:41.638Z,10.93
2019-05-26T11:33:10.510Z,10.27
2019-05-26T11:35:39.445Z,13.53
2019-05-26T11:38:08.457Z,11.33
2019-05-26T11:40:38.335Z,10.40
2019-05-26T11:43:16.146Z,10.30
2019-05-26T11:45:37.087Z,11.70
2019-05-26T11:48:07.130Z,11.07
2019-05-26T11:50:35.954Z,10.03
2019-05-26T11:53:07.976Z,10.80
2019-05-26T11:55:36.772Z,10.50
2019-05-26T11:58:06.716Z,15.40
2019-05-26T12:00:35.583Z,9.77
2019-05-26T12:03:07.207Z,9.73
2019-05-26T12:05:37.239Z,9.23
2019-05-26T12:08:06.213Z,8.40
2019-05-26T12:10:35.107Z,8.73
2019-05-26T12:13:03.933Z,7.93
2019-05-26T12:15:32.782Z,8.77
2019-05-26T12:18:02.282Z,7.70
2019-05-26T12:20:31.112Z,7.07
2019-05-26T12:23:00.064Z,7.97
2019-05-26T12:25:28.927Z,7.23
2019-05-26T12:27:59.148Z,7.87
2019-05-26T12:30:28.051Z,7.00
2019-05-26T12:32:56.925Z,6.87
2019-05-26T12:35:31.440Z,6.87
2019-05-26T12:38:00.980Z,6.23
2019-05-26T12:40:29.866Z,7.93
2019-05-26T12:42:58.765Z,7.80
2019-05-26T12:45:30.099Z,8.00
2019-05-26T12:48:02.968Z,7.63
2019-05-26T12:50:32.419Z,6.97
2019-05-26T12:53:01.320Z,7.10
2019-05-26T12:55:30.162Z,7.40
2019-05-26T12:57:58.984Z,8.00
2019-05-26T13:00:27.876Z,8.10
2019-05-26T13:02:56.792Z,7.97
2019-05-26T13:05:25.607Z,7.50
2019-05-26T13:07:54.475Z,9.83
2019-05-26T13:10:23.296Z,9.27
2019-05-26T13:12:54.940Z,9.37
2019-05-26T13:15:23.848Z,8.83
2019-05-26T13:17:52.643Z,8.07
2019-05-26T13:20:22.450Z,8.00
2019-05-26T13:22:52.069Z,8.53
2019-05-26T13:25:20.888Z,10.97
2019-05-26T13:27:51.944Z,11.83
2019-05-26T13:30:20.776Z,10.97
2019-05-26T13:32:49.609Z,11.73
2019-05-26T13:35:18.874Z,12.37
2019-05-26T13:37:48.440Z,12.50
2019-05-26T13:40:18.461Z,12.80
2019-05-26T13:42:47.290Z,12.00
2019-05-26T13:45:22.301Z,11.97
2019-05-26T13:47:45.052Z,11.37
2019-05-26T13:50:13.895Z,10.97
2019-05-26T13:52:42.703Z,9.60
2019-05-26T13:55:12.308Z,8.83
2019-05-26T13:57:41.156Z,8.77
2019-05-26T14:00:10.853Z,7.77
2019-05-26T14:02:40.308Z,8.30
2019-05-26T14:05:12.334Z,6.53
2019-05-26T14:07:42.039Z,5.03
2019-05-26T14:10:10.931Z,5.03
2019-05-26T14:12:39.829Z,4.07
2019-05-26T14:15:08.607Z,3.67
2019-05-26T14:17:38.642Z,3.20
2019-05-26T14:20:08.622Z,3.20
2019-05-26T14:22:37.477Z,3.30
2019-05-26T14:25:06.698Z,2.70
2019-05-26T14:27:35.590Z,3.07
2019-05-26T14:30:05.456Z,3.37
2019-05-26T14:32:34.308Z,3.50
2019-05-26T14:35:03.187Z,2.90
2019-05-26T14:37:32.154Z,2.83
2019-05-26T14:40:00.880Z,2.90
2019-05-26T14:42:29.704Z,2.90
2019-05-26T14:45:05.757Z,2.10
2019-05-26T14:47:35.203Z,1.77
2019-05-26T14:50:04.112Z,1.90
2019-05-26T14:52:33.063Z,1.60
2019-05-26T14:55:01.878Z,1.77
2019-05-26T14:57:31.103Z,1.67
2019-05-26T14:59:59.602Z,1.83
2019-05-26T15:02:29.603Z,1.87
2019-05-26T15:04:58.393Z,2.50
2019-05-26T15:07:27.221Z,2.40
2019-05-26T15:09:56.142Z,2.37
2019-05-26T15:12:25.593Z,1.97
2019-05-26T15:14:55.175Z,2.30
2019-05-26T15:17:23.972Z,3.17
2019-05-26T15:19:52.816Z,2.73
2019-05-26T15:22:21.741Z,2.70
2019-05-26T15:24:51.862Z,2.00
2019-05-26T15:27:20.724Z,2.30
2019-05-26T15:29:49.542Z,2.00
2019-05-26T15:32:18.955Z,3.70
2019-05-26T15:34:48.501Z,2.70
2019-05-26T15:37:17.318Z,2.80
2019-05-26T15:39:46.152Z,3.10
2019-05-26T15:42:15.146Z,3.20
2019-05-26T15:44:44.842Z,3.30
2019-05-26T15:47:13.722Z,3.03
2019-05-26T15:49:43.504Z,3.20
2019-05-26T15:52:12.327Z,3.23
2019-05-26T15:54:41.262Z,3.30
2019-05-26T15:57:10.722Z,3.63
2019-05-26T15:59:39.541Z,3.17
2019-05-26T16:02:09.737Z,4.33
2019-05-26T16:04:38.633Z,3.67
2019-05-26T16:07:08.312Z,3.90
2019-05-26T16:09:37.136Z,5.33
2019-05-26T16:12:07.104Z,4.20
2019-05-26T16:14:35.922Z,4.50
2019-05-26T16:17:05.099Z,4.40
2019-05-26T16:19:34.329Z,4.20
2019-05-26T16:22:03.997Z,7.00
2019-05-26T16:24:35.567Z,4.03
2019-05-26T16:27:18.283Z,4.13
2019-05-26T16:29:33.589Z,3.77
2019-05-26T16:32:03.306Z,3.90
2019-05-26T16:34:32.153Z,3.80
2019-05-26T16:37:02.284Z,3.90
2019-05-26T16:39:36.848Z,3.73
2019-05-26T16:42:01.063Z,3.63
2019-05-26T16:44:31.307Z,3.27
2019-05-26T16:47:00.148Z,3.20
2019-05-26T16:49:29.037Z,3.70
2019-05-26T16:51:59.041Z,3.40
2019-05-26T16:54:30.068Z,2.87
2019-05-26T16:56:59.229Z,4.13
2019-05-26T16:59:28.066Z,4.17
2019-05-26T17:01:57.743Z,3.53
2019-05-26T17:04:27.027Z,2.60
2019-05-26T17:06:55.948Z,3.10
2019-05-26T17:09:25.674Z,3.37
2019-05-26T17:11:54.499Z,2.57
2019-05-26T17:14:23.316Z,3.07
2019-05-26T17:16:53.484Z,2.77
2019-05-26T17:19:22.544Z,2.43
2019-05-26T17:21:52.195Z,2.93
2019-05-26T17:24:22.799Z,2.73
2019-05-26T17:26:52.548Z,3.27
2019-05-26T17:29:21.844Z,2.80
2019-05-26T17:31:51.444Z,3.17
2019-05-26T17:34:20.262Z,3.23
2019-05-26T17:36:49.159Z,3.50
2019-05-26T17:39:18.742Z,4.47
2019-05-26T17:41:49.052Z,3.53
2019-05-26T17:44:18.388Z,3.87
2019-05-26T17:46:47.172Z,3.53
2019-05-26T17:49:16.229Z,4.40
2019-05-26T17:51:45.054Z,3.53
2019-05-26T17:54:14.025Z,3.80
2019-05-26T17:56:44.227Z,3.90
2019-05-26T17:59:14.266Z,3.73
2019-05-26T18:01:43.595Z,4.10
2019-05-26T18:04:12.405Z,3.10
2019-05-26T18:06:42.252Z,4.17
2019-05-26T18:09:13.019Z,3.57
2019-05-26T18:11:41.942Z,3.70
2019-05-26T18:14:11.690Z,3.77
2019-05-26T18:16:40.564Z,6.10
2019-05-26T18:19:09.796Z,5.70
2019-05-26T18:21:39.249Z,5.73
2019-05-26T18:24:09.657Z,4.03
2019-05-26T18:26:39.121Z,4.10
2019-05-26T18:29:08.604Z,4.60
2019-05-26T18:31:37.477Z,4.40
2019-05-26T18:34:13.505Z,4.80
2019-05-26T18:36:42.439Z,5.77
2019-05-26T18:39:13.186Z,4.10
2019-05-26T18:41:42.802Z,3.90
2019-05-26T18:44:11.746Z,4.50
2019-05-26T18:46:41.580Z,4.53
2019-05-26T18:49:10.468Z,4.60
2019-05-26T18:51:41.390Z,4.60
2019-05-26T18:54:10.327Z,5.40
2019-05-26T18:56:41.021Z,4.23
2019-05-26T18:59:09.825Z,3.97
2019-05-26T19:01:38.651Z,3.80
2019-05-26T19:04:07.548Z,4.17
2019-05-26T19:06:36.397Z,3.37
2019-05-26T19:09:07.861Z,3.50
2019-05-26T19:11:36.754Z,3.60
2019-05-26T19:14:05.882Z,3.97
2019-05-26T19:16:34.885Z,3.23
2019-05-26T19:19:03.911Z,3.30
2019-05-26T19:21:33.136Z,3.33
2019-05-26T19:24:02.191Z,3.30
2019-05-26T19:26:31.004Z,2.93
2019-05-26T19:28:59.958Z,3.23
2019-05-26T19:31:28.796Z,3.70
2019-05-26T19:33:57.788Z,3.40
2019-05-26T19:36:26.657Z,2.70
2019-05-26T19:38:55.613Z,3.03
2019-05-26T19:41:26.671Z,3.10
2019-05-26T19:43:55.646Z,3.60
2019-05-26T19:46:24.507Z,5.17
2019-05-26T19:48:53.331Z,4.37
2019-05-26T19:51:22.212Z,3.47
2019-05-26T19:53:52.054Z,2.63
2019-05-26T19:56:20.944Z,2.80
2019-05-26T19:58:49.836Z,2.70
2019-05-26T20:01:19.510Z,2.37
2019-05-26T20:03:48.295Z,2.30
2019-05-26T20:06:17.191Z,2.80
2019-05-26T20:08:47.449Z,2.37
2019-05-26T20:11:16.298Z,2.40
2019-05-26T20:13:45.246Z,2.50
2019-05-26T20:16:14.114Z,1.93
2019-05-26T20:18:43.001Z,2.07
2019-05-26T20:21:11.832Z,2.03
2019-05-26T20:23:41.340Z,2.10
2019-05-26T20:26:10.326Z,2.17
2019-05-26T20:28:39.157Z,2.00
2019-05-26T20:31:07.980Z,2.63
2019-05-26T20:33:36.862Z,2.13
2019-05-26T20:36:05.676Z,2.00
2019-05-26T20:38:35.275Z,2.00
2019-05-26T20:41:04.760Z,1.90
2019-05-26T20:43:33.568Z,1.60
2019-05-26T20:46:02.530Z,1.43
2019-05-26T20:48:31.338Z,1.47
2019-05-26T20:51:00.332Z,1.50
2019-05-26T20:53:29.299Z,1.47
2019-05-26T20:55:58.184Z,1.50
2019-05-26T20:58:28.294Z,1.50
2019-05-26T21:00:57.168Z,1.40
2019-05-26T21:03:27.350Z,1.40
2019-05-26T21:05:58.384Z,1.97
2019-05-26T21:08:31.618Z,1.10
2019-05-26T21:11:00.694Z,1.47
2019-05-26T21:13:30.126Z,1.33
2019-05-26T21:15:59.094Z,1.53
2019-05-26T21:18:27.882Z,1.77
2019-05-26T21:20:56.737Z,1.70
2019-05-26T21:23:25.547Z,2.10
2019-05-26T21:25:54.726Z,1.80
2019-05-26T21:28:24.260Z,1.57
2019-05-26T21:30:53.054Z,1.70
2019-05-26T21:33:21.927Z,1.70
2019-05-26T21:35:51.959Z,1.77
2019-05-26T21:38:21.697Z,2.10
2019-05-26T21:40:50.510Z,2.23
2019-05-26T21:43:19.341Z,2.40
2019-05-26T21:45:48.385Z,2.50
2019-05-26T21:48:17.184Z,2.90
2019-05-26T21:50:45.979Z,3.70
2019-05-26T21:53:15.322Z,3.30
2019-05-26T21:55:44.234Z,3.40
2019-05-26T21:58:13.026Z,3.50
2019-05-26T22:00:45.014Z,3.57
2019-05-26T22:03:13.817Z,4.30
2019-05-26T22:05:42.613Z,3.93
2019-05-26T22:08:11.501Z,4.10
2019-05-26T22:10:40.413Z,4.67
2019-05-26T22:13:10.180Z,4.70
2019-05-26T22:15:39.567Z,5.17
2019-05-26T22:18:08.364Z,4.97
2019-05-26T22:20:37.153Z,5.20
2019-05-26T22:23:07.259Z,6.37
2019-05-26T22:25:36.046Z,5.63
2019-05-26T22:28:04.981Z,6.37
2019-05-26T22:30:33.790Z,6.77
2019-05-26T22:33:02.582Z,6.70
2019-05-26T22:35:31.484Z,7.50
2019-05-26T22:38:01.041Z,7.33
2019-05-26T22:40:29.887Z,8.23
2019-05-26T22:42:58.993Z,7.57
2019-05-26T22:45:27.767Z,7.17
2019-05-26T22:47:58.017Z,7.70
2019-05-26T22:50:27.671Z,7.80
2019-05-26T22:52:56.507Z,8.43
2019-05-26T22:55:25.341Z,8.90
2019-05-26T22:57:54.754Z,8.53
2019-05-26T23:00:23.615Z,8.87
2019-05-26T23:02:53.152Z,8.93
2019-05-26T23:05:21.931Z,8.00
2019-05-26T23:07:50.747Z,8.60
2019-05-26T23:10:19.626Z,8.37
2019-05-26T23:12:48.425Z,8.63
2019-05-26T23:15:17.228Z,9.70
2019-05-26T23:17:46.128Z,8.70
2019-05-26T23:20:16.210Z,8.53
2019-05-26T23:22:46.155Z,8.27
2019-05-26T23:25:14.992Z,9.90
2019-05-26T23:27:43.803Z,8.63
2019-05-26T23:30:12.698Z,9.73
2019-05-26T23:32:41.480Z,8.73
2019-05-26T23:35:10.304Z,9.17
2019-05-26T23:37:42.827Z,10.07
2019-05-26T23:40:11.678Z,9.37
2019-05-26T23:42:40.498Z,8.97
2019-05-26T23:45:09.442Z,10.47
2019-05-26T23:47:38.312Z,9.17
2019-05-26T23:50:07.140Z,8.23
2019-05-26T23:52:36.735Z,8.33
2019-05-26T23:55:06.384Z,9.63
2019-05-26T23:57:35.179Z,8.60
